NWS Home NWS Lubbock West Texas Mesonet South Sector Latest Conditions as of 0644 AM, Wed Dec 02, 2020

Latest   N   C   S   Daily Sum   3hrΔ   24hrΔ   Soil Data 
Site Map   24hr Precip   72hr Precip   Google Plot


Station Time of Last Temp Dew Pt. RH Wind Direction Wind Speed Wind Gust Max Wind Max Temp Min Temp Max RH Min RH Altimeter 1HR Rain Today's Rain Solar Rad Wind Chill
Andrews 2E  06:40 AM 35 23 63% NW1519 30 mph 338° @ 0208 AM 41 35 63 35 30.15" 0 0.00 0 25
Aspermont 3NE  06:40 AM 39 25 59% NW1419 24 mph 327° @ 0625 AM 44 36 73 54 30.06" 0 0.00 0  
Big Bend NP - Castolon  06:40 AM 48 15 25% NW1112 21 mph 302° @ 0353 AM 51 45 40 21 30.11" 0 0.00 0  
Big Bend NP - Persimmon Gap  06:40 AM 45 13 27% N1823 41 mph 349° @ 0455 AM 53 44 36 19 30.13" 0 0.00 0  
Big Lake 1WNW  06:40 AM 36 19 50% NW1012 18 mph 200° @ 1247 AM 46 35 57 42 30.12" 0 0.00 0  
Brownfield 2S  06:40 AM 34 24 67% NW2026 32 mph 358° @ 1250 AM 41 34 67 36 30.13" 0 0.00 0 23
Clyde 2WNW  06:40 AM 36 27 69% NW1011 21 mph 178° @ 1229 AM 44 36 69 47 30.04" 0 0.00 0  
Colorado City 5NW  06:40 AM 36 23 59% NW57 16 mph 337° @ 0139 AM 45 34 73 51 30.11" 0 0.00 0  
Coyanosa 2N  06:40 AM 37 16 41% NW1113 15 mph 288° @ 0241 AM 49 37 41 21 30.21" 0 0.00 0  
Crane 1NNW   06:40 AM 36 18 47% NW67 23 mph 15° @ 0330 AM 46 36 47 35 30.18" 0 0.00 0  
Dell City  06:40 AM 32 23 68% N67 19 mph 13° @ 0108 AM 44 32 68 34 30.21" 0 0.00 0 26
Denver City 7WNW  06:40 AM 33 24 70% N1823 30 mph 352° @ 0335 AM 40 33 70 37 30.16" 0 0.00 0 22
Doole 3WNW  06:40 AM 37 26 64% W1013 14 mph 276° @ 0618 AM 47 32 73 46 30.06" 0 0.00 0  
Fluvanna 3WNW  06:40 AM 37 21 52% N2836 38 mph 340° @ 0625 AM 42 37 53 49 30.07" 0 0.00 0  
Fort Chadbourne  06:40 AM 40 26 57% NW1014 23 mph 330° @ 0629 AM 43 31 77 53 30.07" 0 0.00 0  
Fort Lancaster  06:40 AM 42 21 43% NW1115 18 mph 325° @ 0530 AM 46 31 69 43 30.14" 0 0.00 0  
Fort McKavett  06:40 AM 33 25 71% SW45 13 mph 178° @ 1208 AM 46 32 73 44 30.08" 0 0.00 0  
Gail 2ESE  06:40 AM 37 21 51% N1421 30 mph 338° @ 0632 AM 44 37 52 46 30.10" 0 0.00 0  
Graham 5SSW  06:40 AM 36 20 53% N2231 34 mph 343° @ 0639 AM 42 36 53 44 30.11" 0 0.00 0  
Guadalupe Mtns Natl Park  06:40 AM 29 20 69% NE56 31 mph 28° @ 0110 AM 38 28 69 35 30.18" 0 0.00 0 23
Haskell 1NW  06:40 AM 37 29 72% NW1418 20 mph 319° @ 0635 AM 45 36 76 61 30.03" 0 0.00 0  
Hobbs NM 5NW  06:40 AM 32 22 66% N911 27 mph 6° @ 1233 AM 40 32 66 30 30.20" 0 0.00 0 24
Jayton 1SSE  06:40 AM 40 24 53% NW1932 32 mph 333° @ 0640 AM 44 39 64 50 30.07" 0 0.00 0  
Junction 1SSW  06:40 AM 29 28 97% SE22 4 mph 167° @ 0406 AM 31 27 97 87 30.07" 0 0.00 0  
Kent 9E  06:40 AM 35 19 51% N68 23 mph 308° @ 1206 AM 47 35 51 22 30.23" 0 0.00 0  
Lake Alan Henry 1NW  06:40 AM 38 22 52% NW1114 23 mph 337° @ 0151 AM 43 37 55 48 30.11" 0 0.00 0  
Lamesa 2SE  06:40 AM 36 25 64% N1627 31 mph 337° @ 0615 AM 43 36 64 41 30.14" 0 0.00 0  
Lomax 1SSE  06:40 AM 35 19 51% NW1010 20 mph 327° @ 0437 AM 42 35 51 43 30.14" 0 0.00 0 27
McCamey 1SSW  06:40 AM 32 15 50% W55 18 mph 335° @ 0343 AM 47 32 50 35 30.19" 0 0.00 0  
Menard 2NW   06:40 AM 34 26 74% W67 9 mph 265° @ 0600 AM 43 30 90 54 30.06" 0 0.00 0 29
Mertzon 3NNE  06:40 AM 36 22 57% NW810 17 mph 293° @ 0327 AM 46 36 57 43 30.11" 0 0.00 0  
New Home  06:40 AM 33 24 69% N1417 29 mph 344° @ 0240 AM 41 33 70 42 30.15" 0 0.00 0 23
O'Donnell 1N  06:40 AM 34 24 65% NW1519 27 mph 340° @ 1255 AM 42 34 65 43 30.13" 0 0.00 0 24
Plains 3N  06:40 AM 32 25 74% N1924 33 mph 348° @ 0340 AM 39 32 74 40 30.16" 0 0.00 0 20
Post 1NE  06:40 AM 37 21 52% NW1421 32 mph 331° @ 0156 AM 43 37 52 45 30.12" 0 0.00 0  
Rotan 5W  06:40 AM 38 24 57% NW1215 22 mph 225° @ 1201 AM 47 38 64 49 30.09" 0 0.00 0  
San Angelo 7NW  06:40 AM 34 24 68% W45 14 mph 287° @ 0345 AM 44 33 72 47 30.09" 0 0.00 0  
Seagraves 1SW  06:40 AM 34 25 71% N2027 28 mph 355° @ 1205 AM 41 34 71 36 30.15" 0 0.00 0 23
Segovia 7SSW  06:40 AM 42 40 91% NW912 15 mph 151° @ 0121 AM 46 41 95 60 30.06" 0 0.00 0  
Seminole 2NNE  06:40 AM 35 25 68% N1623 29 mph 346° @ 0135 AM 42 35 68 34 30.16" 0 0.00 0 25
Sierra Blanca 1SSE  06:40 AM 32 14 48% N67 26 mph 9° @ 1216 AM 42 30 49 31 30.19" 0 0.00 0 26
Snyder 3E  06:40 AM 37 22 55% NW1620 28 mph 328° @ 0400 AM 45 37 67 48 30.08" 0 0.00 0  
Snyder 3SSW  06:40 AM 37 22 54% N1417 25 mph 336° @ 0541 AM 46 37 59 45 30.09" 0 0.00 0  
St. Lawrence 5SW  06:40 AM 36 20 52% NW1618 22 mph 327° @ 0615 AM 42 36 54 49 30.11" 0 0.00 0  
Stamford 5ESE  06:40 AM 36 29 75% NW810 17 mph 298° @ 0257 AM 44 36 76 55 30.05" 0 0.00 0  
Sterling City 4WSW  06:40 AM 38 19 46% NW812 14 mph 306° @ 0536 AM 43 37 54 45 30.11" 0 0.00 0  
Sundown 8WSW  06:40 AM 32 24 73% N1518 31 mph 348° @ 0350 AM 39 32 73 36 30.16" 0 0.00 0 22
Sweetwater 11SW   06:40 AM 35 23 62% W35 15 mph 241° @ 0204 AM 45 35 64 47 30.08" 0 0.00 0  
Tahoka 3NNE  06:40 AM 34 22 61% N1820 31 mph 338° @ 0215 AM 41 34 61 44 30.13" 0 0.00 0 23
Tarzan 2WNW  06:40 AM 36 23 58% NW2025 29 mph 334° @ 0500 AM 42 36 58 42 30.13" 0 0.00 0  
Tatum NM 2SW  06:40 AM 30 22 72% N1722 35 mph 349° @ 0205 AM 38 30 72 36 30.18" 0 0.00 0 18
Throckmorton 1SW  06:40 AM 36 30 79% W912 17 mph 265° @ 0607 AM 45 36 81 46 30.01" 0 0.00 0  
Van Horn 3ENE  06:40 AM 36 19 48% NE1014 24 mph 34° @ 0155 AM 45 36 48 25 30.20" 0 0.00 0  
Wall 2E  06:40 AM 35 23 63% W1010 21 mph 196° @ 1203 AM 49 33 64 37 30.10" 0 0.00 0 28
Weinert 2NNE  06:40 AM 38 28 69% NW1518 21 mph 315° @ 0637 AM 44 36 73 60 30.03" 0 0.00 0  
Welch  06:40 AM 34 25 68% NW1518 27 mph 342° @ 0114 AM 40 34 68 41 30.15" 0 0.00 0 24

West Texas Mesonet Home   Site Map/Menu  NWS Lubbock Soil Data  Daily Summary Page  24hr Precip  72hr Precip  Google Plot